createdAt,value
2023-06-24T00:00:23.230Z,6.87
2023-06-24T00:02:52.510Z,7.43
2023-06-24T00:05:19.425Z,7.90
2023-06-24T00:07:46.705Z,7.37
2023-06-24T00:10:16.074Z,7.60
2023-06-24T00:12:44.175Z,7.50
2023-06-24T00:15:11.606Z,7.70
2023-06-24T00:17:38.842Z,7.27
2023-06-24T00:20:08.501Z,7.40
2023-06-24T00:22:35.262Z,7.40
2023-06-24T00:25:02.017Z,6.97
2023-06-24T00:27:28.762Z,6.93
2023-06-24T00:29:55.417Z,6.80
2023-06-24T00:32:22.249Z,7.50
2023-06-24T00:34:48.965Z,6.90
2023-06-24T00:37:15.823Z,7.70
2023-06-24T00:39:42.520Z,6.90
2023-06-24T00:42:11.934Z,6.90
2023-06-24T00:44:38.879Z,7.17
2023-06-24T00:47:06.087Z,6.77
2023-06-24T00:49:32.834Z,6.87
2023-06-24T00:52:02.152Z,7.00
2023-06-24T00:54:32.433Z,6.53
2023-06-24T00:57:03.126Z,7.23
2023-06-24T00:59:31.311Z,7.00
2023-06-24T01:01:58.317Z,7.13
2023-06-24T01:04:26.362Z,7.00
2023-06-24T01:06:53.901Z,6.60
2023-06-24T01:09:21.489Z,6.77
2023-06-24T01:11:49.837Z,7.23
2023-06-24T01:14:21.328Z,6.47
2023-06-24T01:17:02.040Z,6.70
2023-06-24T01:19:55.073Z,6.80
2023-06-24T01:22:59.557Z,7.10
2023-06-24T01:26:10.807Z,6.53
2023-06-24T01:29:08.257Z,6.10
2023-06-24T01:31:59.950Z,7.40
2023-06-24T01:34:38.105Z,7.10
2023-06-24T01:37:14.368Z,6.80
2023-06-24T01:39:54.103Z,6.83
2023-06-24T01:42:23.013Z,5.83
2023-06-24T01:44:50.982Z,6.70
2023-06-24T01:47:21.614Z,7.13
2023-06-24T01:49:50.679Z,6.43
2023-06-24T01:52:19.608Z,7.07
2023-06-24T01:54:49.107Z,6.30
2023-06-24T01:57:19.312Z,6.77
2023-06-24T01:59:47.637Z,6.97
2023-06-24T02:02:15.291Z,6.70
2023-06-24T02:04:43.850Z,6.57
2023-06-24T02:07:12.762Z,6.63
2023-06-24T02:09:40.338Z,7.13
2023-06-24T02:12:09.402Z,6.57
2023-06-24T02:14:38.047Z,6.67
2023-06-24T02:17:07.306Z,6.43
2023-06-24T02:19:36.812Z,6.80
2023-06-24T02:22:05.876Z,6.97
2023-06-24T02:24:33.297Z,6.70
2023-06-24T02:27:00.390Z,6.93
2023-06-24T02:29:28.938Z,6.40
2023-06-24T02:31:55.803Z,6.17
2023-06-24T02:34:25.146Z,6.50
2023-06-24T02:36:52.130Z,6.47
2023-06-24T02:39:19.515Z,6.83
2023-06-24T02:41:51.328Z,6.10
2023-06-24T02:44:18.225Z,6.83
2023-06-24T02:46:47.259Z,6.10
2023-06-24T02:49:16.957Z,6.30
2023-06-24T02:51:44.190Z,6.57
2023-06-24T02:54:12.781Z,6.10
2023-06-24T02:56:43.084Z,6.30
2023-06-24T02:59:10.679Z,5.87
2023-06-24T03:01:40.171Z,7.10
2023-06-24T03:04:07.240Z,6.97
2023-06-24T03:06:38.072Z,7.03
2023-06-24T03:09:05.405Z,6.80
2023-06-24T03:11:32.150Z,7.07
2023-06-24T03:13:59.225Z,6.40
2023-06-24T03:16:26.003Z,6.63
2023-06-24T03:18:52.706Z,6.17
2023-06-24T03:21:19.454Z,7.13
2023-06-24T03:23:46.233Z,6.70
2023-06-24T03:26:12.942Z,7.07
2023-06-24T03:28:40.034Z,6.57
2023-06-24T03:31:06.818Z,7.10
2023-06-24T03:33:33.503Z,7.23
2023-06-24T03:36:00.250Z,6.80
2023-06-24T03:38:27.012Z,7.40
2023-06-24T03:40:53.750Z,7.47
2023-06-24T03:43:20.587Z,7.83
2023-06-24T03:45:47.365Z,8.70
2023-06-24T03:48:14.229Z,8.20
2023-06-24T03:50:40.914Z,7.77
2023-06-24T03:53:07.638Z,11.00
2023-06-24T03:55:34.590Z,9.87
2023-06-24T03:58:04.067Z,9.73
2023-06-24T04:00:30.760Z,10.13
2023-06-24T04:02:57.526Z,9.40
2023-06-24T04:05:25.854Z,8.30
2023-06-24T04:07:53.598Z,9.57
2023-06-24T04:10:20.497Z,10.20
2023-06-24T04:12:47.334Z,11.50
2023-06-24T04:15:14.058Z,8.97
2023-06-24T04:17:43.651Z,10.10
2023-06-24T04:20:11.273Z,8.27
2023-06-24T04:22:39.270Z,9.50
2023-06-24T04:25:09.032Z,8.17
2023-06-24T04:27:36.294Z,7.90
2023-06-24T04:30:04.493Z,8.53
2023-06-24T04:32:33.740Z,8.50
2023-06-24T04:35:02.183Z,8.00
2023-06-24T04:37:29.099Z,8.53
2023-06-24T04:39:56.029Z,8.20
2023-06-24T04:42:23.960Z,8.40
2023-06-24T04:44:53.518Z,8.60
2023-06-24T04:47:20.860Z,8.13
2023-06-24T04:49:47.756Z,8.77
2023-06-24T04:52:14.964Z,8.70
2023-06-24T04:54:41.650Z,8.07
2023-06-24T04:57:11.058Z,8.07
2023-06-24T04:59:39.516Z,8.53
2023-06-24T05:02:06.301Z,8.07
2023-06-24T05:04:33.044Z,8.33
2023-06-24T05:06:59.793Z,9.30
2023-06-24T05:09:26.581Z,8.70
2023-06-24T05:11:53.303Z,9.07
2023-06-24T05:14:19.952Z,9.90
2023-06-24T05:16:46.849Z,9.17
2023-06-24T05:19:13.550Z,8.83
2023-06-24T05:21:40.335Z,9.67
2023-06-24T05:24:07.319Z,9.40
2023-06-24T05:26:34.015Z,10.03
2023-06-24T05:29:00.659Z,8.93
2023-06-24T05:31:27.979Z,9.03
2023-06-24T05:33:54.624Z,8.40
2023-06-24T05:36:21.362Z,8.93
2023-06-24T05:38:49.843Z,8.33
2023-06-24T05:41:16.590Z,9.10
2023-06-24T05:43:44.941Z,9.47
2023-06-24T05:46:11.809Z,9.80
2023-06-24T05:48:38.622Z,10.23
2023-06-24T05:51:05.307Z,9.73
2023-06-24T05:53:32.056Z,9.07
2023-06-24T05:55:58.697Z,10.77
2023-06-24T05:58:25.367Z,10.50
2023-06-24T06:00:52.124Z,10.73
2023-06-24T06:03:18.819Z,11.30
2023-06-24T06:05:45.579Z,12.00
2023-06-24T06:08:12.430Z,12.50
2023-06-24T06:10:39.265Z,11.60
2023-06-24T06:13:06.052Z,10.63
2023-06-24T06:15:32.868Z,9.47
2023-06-24T06:17:59.769Z,11.90
2023-06-24T06:20:26.613Z,11.00
2023-06-24T06:22:53.373Z,10.43
2023-06-24T06:25:20.121Z,13.83
2023-06-24T06:27:46.885Z,14.63
2023-06-24T06:30:14.657Z,12.33
2023-06-24T06:32:41.579Z,14.17
2023-06-24T06:35:09.061Z,11.50
2023-06-24T06:37:35.866Z,10.50
2023-06-24T06:40:03.429Z,11.37
2023-06-24T06:42:31.160Z,12.90
2023-06-24T06:44:57.900Z,13.03
2023-06-24T06:47:24.847Z,14.33
2023-06-24T06:49:51.568Z,14.27
2023-06-24T06:52:20.749Z,12.27
2023-06-24T06:54:47.452Z,12.80
2023-06-24T06:57:14.189Z,12.77
2023-06-24T06:59:41.062Z,16.03
2023-06-24T07:02:08.028Z,16.20
2023-06-24T07:04:34.784Z,15.70
2023-06-24T07:07:01.543Z,12.90
2023-06-24T07:09:28.239Z,16.07
2023-06-24T07:11:55.099Z,14.90
2023-06-24T07:14:21.862Z,12.97
2023-06-24T07:16:48.624Z,15.03
2023-06-24T07:19:15.386Z,14.17
2023-06-24T07:21:42.072Z,17.50
2023-06-24T07:24:08.819Z,14.23
2023-06-24T07:26:35.590Z,16.73
2023-06-24T07:29:08.478Z,14.97
2023-06-24T07:31:37.947Z,16.73
2023-06-24T07:34:05.691Z,14.63
2023-06-24T07:36:32.797Z,14.53
2023-06-24T07:38:59.520Z,13.00
2023-06-24T07:41:26.414Z,14.67
2023-06-24T07:43:53.108Z,12.00
2023-06-24T07:46:19.809Z,13.83
2023-06-24T07:48:46.472Z,13.77
2023-06-24T07:51:13.190Z,12.87
2023-06-24T07:53:39.828Z,14.37
2023-06-24T07:56:06.510Z,13.50
2023-06-24T07:58:35.112Z,12.23
2023-06-24T08:01:01.860Z,11.60
2023-06-24T08:03:28.622Z,8.87
2023-06-24T08:05:55.869Z,10.70
2023-06-24T08:08:22.483Z,9.30
2023-06-24T08:10:49.211Z,7.97
2023-06-24T08:13:15.918Z,8.70
2023-06-24T08:15:43.017Z,9.87
2023-06-24T08:18:09.797Z,7.43
2023-06-24T08:20:36.472Z,8.53
2023-06-24T08:23:03.332Z,6.13
2023-06-24T08:25:49.012Z,8.73
2023-06-24T08:28:34.314Z,8.73
2023-06-24T08:31:01.109Z,7.50
2023-06-24T08:33:27.716Z,6.70
2023-06-24T08:35:54.371Z,6.93
2023-06-24T08:38:20.999Z,6.57
2023-06-24T08:40:48.307Z,6.40
2023-06-24T08:43:14.989Z,6.20
2023-06-24T08:45:41.602Z,6.23
2023-06-24T08:48:09.095Z,6.80
2023-06-24T08:50:45.049Z,6.50
2023-06-24T08:53:12.694Z,8.23
2023-06-24T08:55:45.046Z,7.57
2023-06-24T08:58:11.832Z,6.77
2023-06-24T09:00:38.550Z,7.00
2023-06-24T09:03:05.256Z,9.57
2023-06-24T09:05:31.979Z,6.83
2023-06-24T09:07:58.659Z,6.63
2023-06-24T09:10:36.055Z,7.00
2023-06-24T09:13:03.965Z,5.40
2023-06-24T09:15:37.792Z,5.43
2023-06-24T09:18:05.866Z,5.23
2023-06-24T09:20:33.720Z,4.20
2023-06-24T09:23:02.096Z,4.87
2023-06-24T09:25:29.210Z,4.70
2023-06-24T09:27:57.708Z,4.87
2023-06-24T09:30:24.744Z,4.80
2023-06-24T09:32:52.899Z,5.20
2023-06-24T09:35:22.333Z,4.27
2023-06-24T09:37:52.884Z,3.77
2023-06-24T09:40:20.551Z,4.43
2023-06-24T09:43:05.368Z,4.00
2023-06-24T09:45:32.015Z,4.30
2023-06-24T09:47:59.405Z,5.23
2023-06-24T09:50:26.182Z,5.30
2023-06-24T09:52:54.023Z,5.17
2023-06-24T09:55:20.704Z,4.77
2023-06-24T09:57:51.051Z,5.67
2023-06-24T10:00:20.052Z,4.73
2023-06-24T10:02:49.894Z,4.90
2023-06-24T10:05:16.914Z,5.70
2023-06-24T10:07:44.491Z,4.60
2023-06-24T10:10:11.518Z,6.13
2023-06-24T10:12:39.085Z,4.70
2023-06-24T10:15:07.203Z,4.70
2023-06-24T10:17:34.049Z,4.80
2023-06-24T10:20:05.444Z,4.33
2023-06-24T10:22:33.153Z,4.70
2023-06-24T10:25:06.641Z,4.50
2023-06-24T10:27:40.609Z,3.80
2023-06-24T10:30:09.025Z,4.00
2023-06-24T10:32:46.303Z,4.33
2023-06-24T10:35:33.426Z,4.87
2023-06-24T10:38:01.885Z,3.80
2023-06-24T10:40:38.697Z,4.13
2023-06-24T10:43:23.965Z,4.20
2023-06-24T10:45:54.847Z,4.50
2023-06-24T10:48:22.104Z,4.33
2023-06-24T10:50:52.206Z,4.93
2023-06-24T10:53:21.782Z,4.20
2023-06-24T10:55:48.595Z,4.50
2023-06-24T10:58:16.830Z,4.60
2023-06-24T11:00:48.208Z,4.07
2023-06-24T11:03:16.970Z,4.93
2023-06-24T11:05:45.967Z,4.70
2023-06-24T11:08:12.900Z,4.77
2023-06-24T11:10:49.391Z,4.77
2023-06-24T11:13:16.462Z,4.73
2023-06-24T11:15:43.753Z,4.63
2023-06-24T11:18:11.492Z,4.17
2023-06-24T11:20:39.731Z,4.20
2023-06-24T11:23:11.717Z,4.53
2023-06-24T11:25:43.110Z,3.93
2023-06-24T11:28:22.592Z,4.00
2023-06-24T11:30:50.070Z,4.30
2023-06-24T11:33:28.283Z,4.00
2023-06-24T11:35:54.887Z,4.20
2023-06-24T11:38:21.508Z,4.03
2023-06-24T11:40:50.089Z,4.50
2023-06-24T11:43:16.724Z,4.60
2023-06-24T11:45:43.475Z,4.43
2023-06-24T11:48:10.071Z,4.33
2023-06-24T11:50:37.705Z,4.53
2023-06-24T11:53:04.579Z,4.70
2023-06-24T11:55:32.532Z,4.27
2023-06-24T11:58:00.256Z,4.10
2023-06-24T12:00:40.944Z,4.87
2023-06-24T12:03:11.770Z,4.83
2023-06-24T12:05:46.198Z,4.23
2023-06-24T12:08:16.807Z,5.60
2023-06-24T12:10:45.120Z,5.73
2023-06-24T12:13:11.864Z,4.83
2023-06-24T12:15:38.593Z,4.37
2023-06-24T12:18:06.659Z,4.03
2023-06-24T12:20:37.212Z,4.00
2023-06-24T12:23:05.257Z,3.93
2023-06-24T12:25:31.956Z,3.60
2023-06-24T12:28:00.843Z,3.93
2023-06-24T12:30:27.799Z,5.50
2023-06-24T12:32:54.565Z,5.40
2023-06-24T12:35:21.369Z,4.40
2023-06-24T12:37:49.027Z,3.53
2023-06-24T12:40:15.754Z,4.00
2023-06-24T12:42:42.387Z,3.77
2023-06-24T12:45:09.482Z,3.80
2023-06-24T12:47:36.164Z,4.20
2023-06-24T12:50:09.371Z,3.87
2023-06-24T12:52:36.835Z,4.00
2023-06-24T12:55:05.058Z,3.40
2023-06-24T12:57:31.858Z,3.07
2023-06-24T12:59:58.558Z,3.43
2023-06-24T13:02:25.219Z,2.80
2023-06-24T13:04:51.964Z,3.40
2023-06-24T13:07:18.637Z,2.80
2023-06-24T13:09:45.251Z,2.90
2023-06-24T13:12:11.892Z,3.70
2023-06-24T13:14:38.590Z,3.20
2023-06-24T13:17:05.418Z,2.73
2023-06-24T13:19:33.650Z,3.40
2023-06-24T13:22:00.644Z,4.40
2023-06-24T13:24:27.345Z,5.30
2023-06-24T13:26:54.010Z,4.37
2023-06-24T13:29:21.797Z,3.73
2023-06-24T13:31:48.489Z,3.60
2023-06-24T13:34:15.636Z,2.90
2023-06-24T13:36:42.434Z,2.90
2023-06-24T13:39:13.603Z,3.27
2023-06-24T13:41:40.744Z,3.60
2023-06-24T13:44:07.581Z,3.23
2023-06-24T13:46:37.097Z,2.90
2023-06-24T13:49:06.134Z,2.87
2023-06-24T13:51:33.170Z,3.10
2023-06-24T13:53:59.914Z,2.73
2023-06-24T13:56:27.370Z,2.87
2023-06-24T13:58:55.262Z,3.00
2023-06-24T14:01:22.793Z,3.10
2023-06-24T14:03:50.458Z,2.80
2023-06-24T14:06:20.095Z,3.00
2023-06-24T14:08:47.067Z,2.53
2023-06-24T14:11:14.010Z,2.83
2023-06-24T14:13:41.204Z,3.00
2023-06-24T14:16:07.907Z,3.00
2023-06-24T14:18:35.803Z,3.33
2023-06-24T14:21:04.738Z,2.83
2023-06-24T14:23:32.229Z,3.13
2023-06-24T14:26:00.334Z,2.80
2023-06-24T14:28:27.397Z,2.90
2023-06-24T14:30:54.159Z,3.07
2023-06-24T14:33:20.823Z,2.77
2023-06-24T14:35:47.562Z,2.77
2023-06-24T14:38:14.305Z,2.90
2023-06-24T14:40:40.985Z,3.07
2023-06-24T14:43:07.590Z,3.47
2023-06-24T14:45:34.278Z,3.47
2023-06-24T14:48:01.009Z,3.10
2023-06-24T14:50:27.832Z,3.07
2023-06-24T14:52:54.500Z,3.00
2023-06-24T14:55:21.120Z,3.03
2023-06-24T14:57:47.789Z,3.67
2023-06-24T15:00:14.718Z,2.93
2023-06-24T15:02:41.427Z,2.70
2023-06-24T15:05:08.538Z,2.30
2023-06-24T15:07:36.066Z,3.17
2023-06-24T15:10:02.812Z,3.10
2023-06-24T15:12:29.409Z,3.03
2023-06-24T15:14:56.102Z,3.30
2023-06-24T15:17:25.063Z,3.10
2023-06-24T15:19:52.688Z,3.30
2023-06-24T15:22:19.392Z,4.20
2023-06-24T15:24:46.329Z,3.50
2023-06-24T15:27:13.148Z,3.23
2023-06-24T15:29:39.923Z,2.80
2023-06-24T15:32:07.130Z,3.03
2023-06-24T15:34:33.795Z,3.30
2023-06-24T15:37:00.482Z,3.17
2023-06-24T15:39:27.114Z,3.43
2023-06-24T15:41:53.849Z,3.50
2023-06-24T15:44:20.568Z,3.00
2023-06-24T15:46:48.494Z,3.50
2023-06-24T15:49:18.083Z,4.20
2023-06-24T15:51:45.013Z,4.30
2023-06-24T15:54:11.611Z,4.37
2023-06-24T15:56:38.301Z,3.53
2023-06-24T15:59:04.964Z,3.47
2023-06-24T16:01:31.985Z,3.50
2023-06-24T16:03:58.936Z,3.27
2023-06-24T16:06:25.661Z,2.67
2023-06-24T16:08:52.753Z,3.20
2023-06-24T16:11:19.658Z,2.97
2023-06-24T16:13:46.607Z,3.77
2023-06-24T16:16:13.282Z,3.20
2023-06-24T16:18:40.293Z,3.30
2023-06-24T16:21:07.171Z,3.20
2023-06-24T16:23:33.897Z,3.73
2023-06-24T16:26:01.809Z,3.50
2023-06-24T16:28:29.211Z,3.20
2023-06-24T16:30:56.020Z,3.30
2023-06-24T16:33:22.762Z,3.13
2023-06-24T16:35:49.527Z,7.53
2023-06-24T16:38:16.192Z,4.30
2023-06-24T16:40:42.943Z,3.30
2023-06-24T16:43:10.579Z,3.00
2023-06-24T16:45:37.275Z,3.60
2023-06-24T16:48:04.773Z,4.00
2023-06-24T16:50:31.645Z,2.87
2023-06-24T16:52:58.513Z,3.50
2023-06-24T16:55:25.326Z,4.10
2023-06-24T16:57:52.029Z,3.63
2023-06-24T17:00:18.884Z,2.90
2023-06-24T17:02:45.633Z,2.90
2023-06-24T17:05:12.713Z,3.00
2023-06-24T17:07:39.347Z,2.73
2023-06-24T17:10:06.451Z,3.20
2023-06-24T17:12:33.160Z,2.93
2023-06-24T17:14:59.791Z,3.07
2023-06-24T17:17:26.472Z,3.20
2023-06-24T17:19:53.128Z,2.70
2023-06-24T17:22:19.791Z,2.80
2023-06-24T17:24:46.382Z,2.90
2023-06-24T17:27:13.008Z,2.90
2023-06-24T17:29:39.602Z,3.30
2023-06-24T17:32:06.481Z,3.40
2023-06-24T17:34:33.169Z,3.30
2023-06-24T17:36:59.772Z,3.40
2023-06-24T17:39:27.833Z,3.53
2023-06-24T17:41:54.961Z,3.10
2023-06-24T17:44:21.590Z,3.47
2023-06-24T17:46:48.223Z,3.60
2023-06-24T17:49:14.823Z,3.33
2023-06-24T17:51:41.438Z,3.60
2023-06-24T17:54:08.094Z,4.10
2023-06-24T17:56:35.204Z,4.13
2023-06-24T17:59:02.093Z,3.57
2023-06-24T18:01:31.388Z,3.73
2023-06-24T18:03:58.092Z,3.50
2023-06-24T18:06:25.154Z,3.83
2023-06-24T18:08:51.850Z,3.60
2023-06-24T18:11:18.519Z,3.90
2023-06-24T18:13:45.302Z,3.90
2023-06-24T18:16:11.994Z,3.83
2023-06-24T18:18:38.626Z,4.30
2023-06-24T18:21:05.268Z,4.10
2023-06-24T18:23:32.424Z,4.00
2023-06-24T18:25:59.026Z,4.03
2023-06-24T18:28:25.687Z,4.20
2023-06-24T18:30:52.866Z,4.33
2023-06-24T18:33:19.549Z,3.80
2023-06-24T18:35:46.442Z,3.80
2023-06-24T18:38:13.191Z,3.30
2023-06-24T18:40:42.681Z,3.50
2023-06-24T18:43:10.508Z,3.07
2023-06-24T18:45:38.275Z,3.70
2023-06-24T18:48:05.094Z,3.57
2023-06-24T18:50:31.802Z,3.23
2023-06-24T18:52:58.403Z,3.00
2023-06-24T18:55:26.367Z,3.10
2023-06-24T18:57:53.047Z,5.07
2023-06-24T19:00:19.792Z,3.50
2023-06-24T19:02:46.441Z,3.17
2023-06-24T19:05:13.110Z,3.93
2023-06-24T19:07:39.721Z,3.60
2023-06-24T19:10:06.511Z,3.43
2023-06-24T19:12:33.177Z,3.33
2023-06-24T19:14:59.792Z,3.33
2023-06-24T19:17:26.415Z,3.60
2023-06-24T19:19:53.055Z,3.53
2023-06-24T19:22:19.660Z,4.17
2023-06-24T19:24:46.315Z,3.70
2023-06-24T19:27:12.923Z,4.20
2023-06-24T19:29:39.582Z,3.40
2023-06-24T19:32:07.099Z,3.67
2023-06-24T19:34:34.426Z,4.00
2023-06-24T19:37:02.171Z,3.97
2023-06-24T19:41:58.339Z,5.00
2023-06-24T19:44:25.008Z,4.53
2023-06-24T19:46:51.671Z,4.93
2023-06-24T19:49:18.393Z,4.30
2023-06-24T19:51:45.003Z,3.90
2023-06-24T19:54:11.646Z,4.50
2023-06-24T19:56:38.264Z,4.13
2023-06-24T19:59:04.996Z,4.20
2023-06-24T20:01:31.661Z,3.50
2023-06-24T20:03:58.314Z,3.97
2023-06-24T20:06:24.956Z,3.43
2023-06-24T20:08:51.632Z,3.80
2023-06-24T20:11:18.258Z,4.33
2023-06-24T20:13:46.126Z,3.87
2023-06-24T20:16:12.719Z,4.20
2023-06-24T20:18:39.311Z,4.47
2023-06-24T20:21:06.038Z,4.30
2023-06-24T20:23:32.703Z,4.23
2023-06-24T20:25:59.464Z,3.83
2023-06-24T20:28:26.284Z,4.00
2023-06-24T20:30:56.699Z,3.90
2023-06-24T20:33:24.884Z,3.70
2023-06-24T20:35:51.566Z,3.80
2023-06-24T20:38:18.200Z,4.23
2023-06-24T20:40:44.787Z,3.77
2023-06-24T20:43:11.391Z,4.00
2023-06-24T20:45:38.022Z,3.80
2023-06-24T20:48:04.791Z,4.17
2023-06-24T20:50:31.654Z,4.00
2023-06-24T20:52:58.268Z,7.17
2023-06-24T20:55:28.469Z,6.80
2023-06-24T20:57:55.026Z,4.90
2023-06-24T21:00:21.666Z,4.33
2023-06-24T21:02:48.346Z,4.80
2023-06-24T21:05:15.047Z,4.30
2023-06-24T21:07:41.639Z,4.13
2023-06-24T21:10:08.621Z,4.03
2023-06-24T21:12:43.412Z,4.17
2023-06-24T21:15:20.209Z,3.93
2023-06-24T21:17:47.011Z,4.57
2023-06-24T21:20:13.817Z,4.17
2023-06-24T21:22:40.452Z,4.27
2023-06-24T21:25:07.590Z,4.60
2023-06-24T21:27:34.315Z,4.03
2023-06-24T21:30:00.952Z,4.43
2023-06-24T21:32:27.656Z,4.53
2023-06-24T21:34:54.272Z,4.27
2023-06-24T21:37:20.854Z,4.57
2023-06-24T21:39:47.597Z,4.43
2023-06-24T21:42:14.208Z,4.57
2023-06-24T21:44:40.840Z,4.43
2023-06-24T21:47:08.292Z,4.50
2023-06-24T21:49:35.107Z,4.10
2023-06-24T21:52:01.690Z,4.50
2023-06-24T21:54:28.313Z,4.80
2023-06-24T21:56:55.365Z,4.57
2023-06-24T21:59:22.932Z,4.60
2023-06-24T22:01:49.760Z,4.53
2023-06-24T22:04:16.435Z,4.50
2023-06-24T22:06:43.898Z,4.50
2023-06-24T22:09:10.577Z,4.80
2023-06-24T22:11:37.223Z,4.53
2023-06-24T22:14:03.850Z,4.50
2023-06-24T22:16:30.452Z,4.40
2023-06-24T22:18:57.131Z,4.43
2023-06-24T22:21:24.311Z,4.63
2023-06-24T22:23:51.074Z,4.97
2023-06-24T22:26:17.706Z,5.30
2023-06-24T22:28:44.309Z,5.30
2023-06-24T22:31:11.090Z,4.87
2023-06-24T22:33:37.701Z,6.17
2023-06-24T22:36:04.606Z,5.27
2023-06-24T22:38:31.208Z,5.67
2023-06-24T22:40:57.903Z,5.50
2023-06-24T22:43:24.505Z,4.93
2023-06-24T22:45:51.129Z,5.53
2023-06-24T22:48:17.809Z,4.77
2023-06-24T22:50:44.500Z,5.47
2023-06-24T22:53:11.227Z,4.90
2023-06-24T22:55:37.879Z,4.90
2023-06-24T22:58:04.517Z,5.10
2023-06-24T23:00:31.168Z,4.53
2023-06-24T23:02:58.816Z,5.23
2023-06-24T23:05:25.902Z,5.50
2023-06-24T23:07:52.723Z,5.20
2023-06-24T23:10:19.918Z,5.07
2023-06-24T23:12:48.442Z,5.50
2023-06-24T23:15:15.704Z,4.97
2023-06-24T23:17:43.241Z,4.90
2023-06-24T23:20:10.631Z,5.17
2023-06-24T23:22:37.513Z,5.43
2023-06-24T23:25:04.514Z,5.30
2023-06-24T23:27:37.408Z,5.13
2023-06-24T23:30:08.071Z,5.30
2023-06-24T23:32:38.293Z,5.40
2023-06-24T23:35:14.256Z,5.33
2023-06-24T23:37:41.536Z,5.30
2023-06-24T23:40:08.953Z,5.00
2023-06-24T23:42:38.846Z,6.00
2023-06-24T23:45:07.368Z,5.67
2023-06-24T23:47:33.991Z,5.40
2023-06-24T23:50:00.725Z,5.63
2023-06-24T23:52:27.398Z,5.37
2023-06-24T23:54:54.051Z,5.93
2023-06-24T23:57:21.065Z,5.00
2023-06-24T23:59:47.670Z,5.50
